Time;durP1;ratioP1;P1;durP2;ratioP2;P2;SDS_P1;SDS_P2;PMS_P1;PMS_P2;Temp;Humidity;BMP_temperature;BMP_pressure;BME280_temperature;BME280_humidity;BME280_pressure;Samples;Min_cycle;Max_cycle;Signal;HPM_P1;HPM_P2
2023/12/04 00:01:58;;;;;;;23.97;14.13;;;2.10;99.90;;;;;;4981242;28;36931;-81
2023/12/04 00:04:25;;;;;;;27.00;14.17;;;2.10;99.90;;;;;;4964231;28;38969;-80
2023/12/04 00:06:51;;;;;;;28.10;14.97;;;2.10;99.90;;;;;;4986980;28;40054;-80
2023/12/04 00:09:17;;;;;;;25.00;14.70;;;2.20;99.90;;;;;;4965720;28;39724;-80
2023/12/04 00:11:46;;;;;;;25.23;13.93;;;2.20;99.90;;;;;;4976717;28;36837;-80
2023/12/04 00:14:12;;;;;;;27.60;14.53;;;2.20;99.90;;;;;;4965988;28;39343;-80
2023/12/04 00:16:38;;;;;;;25.47;14.37;;;2.20;99.90;;;;;;4959167;28;37302;-81
2023/12/04 00:19:05;;;;;;;24.47;13.43;;;2.20;99.90;;;;;;4959350;28;38663;-81
2023/12/04 00:21:31;;;;;;;27.67;14.23;;;2.20;99.90;;;;;;4963439;28;37984;-80
2023/12/04 00:23:57;;;;;;;26.07;14.63;;;2.20;99.90;;;;;;4969127;28;37752;-81
2023/12/04 00:26:24;;;;;;;27.27;14.67;;;2.20;99.90;;;;;;4970929;28;39126;-80
2023/12/04 00:28:50;;;;;;;25.23;13.10;;;2.20;99.90;;;;;;4991358;28;38073;-80
2023/12/04 00:31:16;;;;;;;24.80;13.43;;;2.20;99.90;;;;;;4976379;28;37883;-80
2023/12/04 00:33:42;;;;;;;25.20;13.20;;;2.20;99.90;;;;;;4988019;28;39403;-80
2023/12/04 00:36:09;;;;;;;22.23;13.37;;;2.20;99.90;;;;;;4975041;28;39065;-80
2023/12/04 00:38:36;;;;;;;24.20;14.57;;;2.20;99.90;;;;;;4950961;28;37941;-80
2023/12/04 00:41:02;;;;;;;23.77;13.90;;;2.20;99.90;;;;;;4961157;28;37832;-81
2023/12/04 00:43:30;;;;;;;27.47;13.77;;;2.20;99.90;;;;;;4983096;28;38912;-81
2023/12/04 00:45:57;;;;;;;23.03;12.83;;;2.20;99.90;;;;;;4948059;28;40207;-81
2023/12/04 00:48:23;;;;;;;21.33;12.77;;;2.20;99.90;;;;;;4965771;28;40261;-80
2023/12/04 00:50:50;;;;;;;22.23;12.57;;;2.20;99.90;;;;;;4964518;28;37628;-80
2023/12/04 00:53:16;;;;;;;21.53;12.63;;;2.30;99.90;;;;;;4964521;28;38844;-80
2023/12/04 00:55:43;;;;;;;22.77;13.00;;;2.30;99.90;;;;;;4974434;28;39901;-80
2023/12/04 00:58:09;;;;;;;22.00;12.10;;;2.30;99.90;;;;;;4963806;28;37106;-80
2023/12/04 01:00:35;;;;;;;24.00;12.23;;;2.30;99.90;;;;;;4961397;28;35336;-80
2023/12/04 01:03:02;;;;;;;23.93;12.53;;;2.30;99.90;;;;;;4982265;28;38935;-81
2023/12/04 01:05:30;;;;;;;22.33;12.93;;;2.40;99.90;;;;;;4979343;28;38073;-80
2023/12/04 01:07:59;;;;;;;20.50;11.63;;;2.40;99.90;;;;;;4994039;28;38120;-80
2023/12/04 01:10:25;;;;;;;24.70;12.87;;;2.40;99.90;;;;;;4991317;28;37614;-80
2023/12/04 01:12:53;;;;;;;22.37;12.93;;;2.30;99.90;;;;;;4990524;28;38966;-80
2023/12/04 01:15:19;;;;;;;20.00;11.80;;;2.40;99.90;;;;;;4976245;28;37467;-79
2023/12/04 01:17:45;;;;;;;21.60;11.60;;;2.40;99.90;;;;;;4983097;28;37586;-80
2023/12/04 01:20:11;;;;;;;19.33;11.77;;;2.40;99.90;;;;;;4987835;28;38745;-81
2023/12/04 01:22:37;;;;;;;23.33;12.40;;;2.40;99.90;;;;;;4988412;28;40238;-80
2023/12/04 01:25:04;;;;;;;18.90;11.57;;;2.40;99.90;;;;;;4970099;28;37512;-80
2023/12/04 01:27:30;;;;;;;21.03;11.37;;;2.40;99.90;;;;;;4959943;28;46909;-78
2023/12/04 01:29:56;;;;;;;18.43;11.17;;;2.40;99.90;;;;;;4970757;28;36519;-78
2023/12/04 01:32:32;;;;;;;22.70;12.33;;;2.50;99.90;;;;;;4998386;28;38779;-80
2023/12/04 01:34:58;;;;;;;19.73;11.57;;;2.50;99.90;;;;;;4991079;28;38812;-80
2023/12/04 01:37:25;;;;;;;20.57;11.87;;;2.50;99.90;;;;;;4972938;28;38255;-80
2023/12/04 01:39:56;;;;;;;19.07;11.37;;;2.50;99.90;;;;;;4971280;28;37724;-80
2023/12/04 01:42:22;;;;;;;18.10;11.10;;;2.40;99.90;;;;;;4967164;28;38087;-80
2023/12/04 01:44:50;;;;;;;20.73;12.23;;;2.40;99.90;;;;;;4969974;28;39886;-80
2023/12/04 01:47:18;;;;;;;17.67;11.23;;;2.50;99.90;;;;;;4973492;28;38930;-80
2023/12/04 01:49:45;;;;;;;19.60;10.40;;;2.50;99.90;;;;;;4974763;28;38500;-80
2023/12/04 01:52:17;;;;;;;20.43;11.20;;;2.40;99.90;;;;;;4983529;28;38864;-79
2023/12/04 01:54:44;;;;;;;16.90;10.13;;;2.40;99.90;;;;;;4973994;28;39997;-80
2023/12/04 01:57:11;;;;;;;23.40;11.53;;;2.40;99.90;;;;;;4995100;28;38383;-81
2023/12/04 01:59:37;;;;;;;20.67;10.90;;;2.50;99.90;;;;;;4975890;28;37948;-80
2023/12/04 02:04:33;;;;;;;20.00;10.90;;;2.40;99.90;;;;;;4917512;28;20068;-74
2023/12/04 02:07:00;;;;;;;18.83;10.90;;;2.40;99.90;;;;;;4909648;28;36363;-75
2023/12/04 02:09:26;;;;;;;16.63;10.43;;;2.50;99.90;;;;;;4914219;29;36410;-75
2023/12/04 02:11:53;;;;;;;19.00;11.17;;;2.50;99.90;;;;;;4913765;28;37887;-75
2023/12/04 02:14:19;;;;;;;15.63;10.07;;;2.50;99.90;;;;;;4933181;28;38399;-75
2023/12/04 02:16:46;;;;;;;17.53;10.33;;;2.50;99.90;;;;;;4905603;28;38373;-74
2023/12/04 02:19:12;;;;;;;18.53;10.20;;;2.50;99.90;;;;;;4923374;28;38968;-75
2023/12/04 02:21:41;;;;;;;16.70;9.87;;;2.50;99.90;;;;;;4923093;28;37908;-75
2023/12/04 02:24:08;;;;;;;15.57;9.57;;;2.50;99.90;;;;;;4909464;28;37708;-75
2023/12/04 02:26:47;;;;;;;19.63;10.17;;;2.50;99.90;;;;;;4926410;28;40395;-75
2023/12/04 02:29:20;;;;;;;20.00;10.63;;;2.50;99.90;;;;;;4927200;28;35913;-75
2023/12/04 02:31:50;;;;;;;18.40;10.13;;;2.50;99.90;;;;;;4931763;28;38731;-75
2023/12/04 02:34:16;;;;;;;16.63;9.93;;;2.50;99.90;;;;;;4940965;28;37710;-75
2023/12/04 02:36:46;;;;;;;15.67;9.63;;;2.50;99.90;;;;;;4913240;28;37184;-76
2023/12/04 02:39:16;;;;;;;16.03;9.70;;;2.50;99.90;;;;;;4904373;28;35794;-76
2023/12/04 02:41:44;;;;;;;15.27;9.57;;;2.60;99.90;;;;;;4924958;28;37970;-77
2023/12/04 02:44:11;;;;;;;15.77;9.13;;;2.60;99.90;;;;;;4914394;28;37196;-76
2023/12/04 02:46:37;;;;;;;17.30;10.00;;;2.60;99.90;;;;;;4915725;28;39014;-76
2023/12/04 02:49:05;;;;;;;15.47;8.80;;;2.70;99.90;;;;;;4938664;28;36989;-76
2023/12/04 02:51:32;;;;;;;15.73;9.40;;;2.70;99.90;;;;;;4934520;28;38361;-75
2023/12/04 02:53:58;;;;;;;16.00;9.57;;;2.60;99.90;;;;;;4935092;28;38550;-75
2023/12/04 02:56:27;;;;;;;14.93;9.03;;;2.70;99.90;;;;;;4934520;28;37380;-75
2023/12/04 02:58:53;;;;;;;15.87;9.50;;;2.70;99.90;;;;;;4928239;28;36332;-75
2023/12/04 03:01:19;;;;;;;15.50;9.30;;;2.70;99.90;;;;;;4931494;28;39474;-75
2023/12/04 03:03:45;;;;;;;15.27;8.90;;;2.70;99.90;;;;;;4908886;28;37851;-76
2023/12/04 03:06:12;;;;;;;16.63;9.23;;;2.70;99.90;;;;;;4916418;28;39556;-74
2023/12/04 03:08:38;;;;;;;17.10;9.63;;;2.70;99.90;;;;;;4933972;28;37946;-75
2023/12/04 03:11:07;;;;;;;15.33;8.57;;;2.70;99.90;;;;;;4940164;28;38719;-76
2023/12/04 03:13:36;;;;;;;14.50;9.00;;;2.70;99.90;;;;;;4912202;28;37541;-75
2023/12/04 03:16:03;;;;;;;15.13;8.33;;;2.70;99.90;;;;;;4945974;28;38087;-75
2023/12/04 03:18:29;;;;;;;16.27;8.63;;;2.70;99.90;;;;;;4924386;28;38018;-74
2023/12/04 03:20:58;;;;;;;13.70;8.03;;;2.70;99.90;;;;;;4929050;28;37542;-75
2023/12/04 03:23:24;;;;;;;15.23;8.33;;;2.70;99.90;;;;;;4913039;28;37694;-76
2023/12/04 03:25:50;;;;;;;12.60;7.90;;;2.70;99.90;;;;;;4913487;28;38251;-75
2023/12/04 03:28:17;;;;;;;16.17;8.73;;;2.70;99.90;;;;;;4927611;28;36679;-75
2023/12/04 03:30:45;;;;;;;13.23;7.93;;;2.70;99.90;;;;;;4934168;28;38638;-76
2023/12/04 03:33:11;;;;;;;13.63;8.27;;;2.70;99.90;;;;;;4909753;29;38180;-75
2023/12/04 03:35:37;;;;;;;14.10;8.50;;;2.70;99.90;;;;;;4931505;29;38407;-77
2023/12/04 03:38:03;;;;;;;13.00;7.87;;;2.60;99.90;;;;;;4929436;28;38114;-75
2023/12/04 03:40:29;;;;;;;14.23;7.97;;;2.70;99.90;;;;;;4935113;28;40259;-75
2023/12/04 03:42:58;;;;;;;13.50;7.90;;;2.70;99.90;;;;;;4943579;28;37424;-77
2023/12/04 03:45:24;;;;;;;12.67;7.07;;;2.70;99.90;;;;;;4912111;29;38360;-75
2023/12/04 03:47:51;;;;;;;15.20;8.47;;;2.70;99.90;;;;;;4930386;28;37224;-76
2023/12/04 03:50:18;;;;;;;15.20;8.10;;;2.70;99.90;;;;;;4915336;29;39439;-75
2023/12/04 03:52:44;;;;;;;13.60;7.97;;;2.70;99.90;;;;;;4922375;28;37449;-76
2023/12/04 03:55:10;;;;;;;14.37;7.80;;;2.70;99.90;;;;;;4931384;28;37694;-76
2023/12/04 03:57:38;;;;;;;13.23;7.90;;;2.70;99.90;;;;;;4931240;28;36674;-76
2023/12/04 04:00:05;;;;;;;13.53;7.43;;;2.70;99.90;;;;;;4922618;28;39263;-76
2023/12/04 04:02:31;;;;;;;12.83;7.27;;;2.70;99.90;;;;;;4926696;28;38684;-76
2023/12/04 04:04:58;;;;;;;12.67;7.90;;;2.70;99.90;;;;;;4928626;28;38640;-75
2023/12/04 04:07:27;;;;;;;13.77;7.57;;;2.70;99.90;;;;;;4943033;28;37190;-75
2023/12/04 04:09:53;;;;;;;12.57;7.30;;;2.70;99.90;;;;;;4926878;28;39573;-76
2023/12/04 04:12:19;;;;;;;12.20;6.93;;;2.70;99.90;;;;;;4932535;28;38853;-76
2023/12/04 04:14:46;;;;;;;14.13;7.13;;;2.70;99.90;;;;;;4916932;29;36717;-76
2023/12/04 04:17:12;;;;;;;12.80;7.53;;;2.70;99.90;;;;;;4918131;28;35952;-77
2023/12/04 04:19:38;;;;;;;13.07;7.17;;;2.70;99.90;;;;;;4910757;28;38811;-75
2023/12/04 04:22:04;;;;;;;13.57;7.30;;;2.80;99.90;;;;;;4921450;28;38922;-75
2023/12/04 04:24:30;;;;;;;12.93;7.63;;;2.80;99.90;;;;;;4931646;28;39581;-75
2023/12/04 04:26:59;;;;;;;11.57;6.73;;;2.80;99.90;;;;;;4918017;28;36209;-75
2023/12/04 04:29:26;;;;;;;13.97;7.10;;;2.80;99.90;;;;;;4947396;28;37888;-75
2023/12/04 04:31:52;;;;;;;12.70;7.90;;;2.80;99.90;;;;;;4933482;28;38250;-76
2023/12/04 04:34:21;;;;;;;11.97;7.10;;;2.80;99.90;;;;;;4919338;28;38044;-76
2023/12/04 04:36:50;;;;;;;13.47;7.03;;;2.90;99.30;;;;;;4931467;28;38392;-75
2023/12/04 04:39:17;;;;;;;14.40;7.27;;;2.90;97.90;;;;;;4932025;28;38677;-75
2023/12/04 04:41:44;;;;;;;13.50;7.40;;;2.90;98.30;;;;;;4916111;28;37608;-76
2023/12/04 04:44:10;;;;;;;11.23;6.97;;;2.90;94.70;;;;;;4948096;28;37718;-76
2023/12/04 04:46:36;;;;;;;12.00;6.17;;;2.90;91.30;;;;;;4922361;28;36158;-76
2023/12/04 04:49:06;;;;;;;12.40;6.80;;;3.00;93.80;;;;;;4930284;28;39331;-76
2023/12/04 04:51:33;;;;;;;10.57;6.63;;;3.00;93.00;;;;;;4912702;28;38045;-76
2023/12/04 04:54:03;;;;;;;11.60;6.77;;;3.00;91.80;;;;;;4932328;28;38911;-76
2023/12/04 04:56:29;;;;;;;11.07;6.53;;;3.10;93.00;;;;;;4927552;28;47416;-76
2023/12/04 04:58:56;;;;;;;9.07;6.17;;;3.10;90.50;;;;;;4917586;29;38024;-76
2023/12/04 05:01:22;;;;;;;10.93;7.20;;;3.10;87.20;;;;;;4926082;28;38569;-76
2023/12/04 05:03:48;;;;;;;9.37;5.70;;;3.10;90.50;;;;;;4923739;28;37913;-77
2023/12/04 05:06:14;;;;;;;10.77;6.50;;;3.10;85.40;;;;;;4919098;28;36841;-76
2023/12/04 05:08:41;;;;;;;11.77;6.27;;;3.20;74.80;;;;;;4928086;28;41017;-75
2023/12/04 05:11:07;;;;;;;11.17;6.67;;;3.20;78.70;;;;;;4933496;28;38575;-76
2023/12/04 05:13:33;;;;;;;10.53;6.17;;;3.20;85.40;;;;;;4931637;28;39346;-75
2023/12/04 05:16:03;;;;;;;11.30;6.27;;;3.10;90.90;;;;;;4917169;29;37571;-76
2023/12/04 05:18:29;;;;;;;12.03;8.00;;;3.10;94.20;;;;;;4938881;28;48229;-76
2023/12/04 05:20:55;;;;;;;11.93;7.90;;;3.20;92.40;;;;;;4930816;28;38532;-76
2023/12/04 05:23:23;;;;;;;11.23;7.27;;;3.20;93.90;;;;;;4935842;28;39065;-75
2023/12/04 05:25:49;;;;;;;12.80;7.50;;;3.20;91.80;;;;;;4925809;28;36220;-76
2023/12/04 05:28:15;;;;;;;11.87;6.90;;;3.20;93.70;;;;;;4929595;28;39688;-76
2023/12/04 05:30:44;;;;;;;11.33;6.67;;;3.10;94.50;;;;;;4911824;28;38243;-76
2023/12/04 05:33:13;;;;;;;10.93;6.93;;;3.20;94.90;;;;;;4932645;28;38123;-76
2023/12/04 05:35:39;;;;;;;11.13;6.90;;;3.20;94.70;;;;;;4942452;28;37071;-76
2023/12/04 05:38:05;;;;;;;12.83;6.67;;;3.20;95.50;;;;;;4939669;28;38059;-76
2023/12/04 05:40:34;;;;;;;10.43;6.40;;;3.20;93.50;;;;;;4945842;28;37587;-75
2023/12/04 05:43:04;;;;;;;13.13;7.27;;;3.20;98.50;;;;;;4929384;28;38325;-76
2023/12/04 05:45:30;;;;;;;11.07;7.10;;;3.20;95.50;;;;;;4934603;28;49152;-76
2023/12/04 05:47:56;;;;;;;11.53;7.00;;;3.20;98.30;;;;;;4933684;28;38561;-76
2023/12/04 05:50:24;;;;;;;10.63;6.70;;;3.20;96.40;;;;;;4917632;28;37501;-75
2023/12/04 05:52:51;;;;;;;10.73;6.97;;;3.20;96.10;;;;;;4935885;28;37958;-76
2023/12/04 05:55:17;;;;;;;11.70;6.37;;;3.20;96.80;;;;;;4934179;28;37345;-75
2023/12/04 05:57:44;;;;;;;12.17;6.63;;;3.20;92.60;;;;;;4911079;29;37634;-74
2023/12/04 06:00:12;;;;;;;10.53;6.67;;;3.20;94.10;;;;;;4931591;28;38997;-76
2023/12/04 06:02:42;;;;;;;10.33;6.40;;;3.20;95.00;;;;;;4910271;28;37785;-75
2023/12/04 06:05:09;;;;;;;10.80;7.03;;;3.20;94.40;;;;;;4940834;28;36944;-76
2023/12/04 06:07:36;;;;;;;12.63;7.60;;;3.20;95.70;;;;;;4934094;28;37510;-75
2023/12/04 06:10:05;;;;;;;11.23;6.77;;;3.20;98.80;;;;;;4937303;28;39624;-76
2023/12/04 06:12:32;;;;;;;10.97;7.13;;;3.20;96.50;;;;;;4911216;29;47004;-76
2023/12/04 06:14:58;;;;;;;13.23;7.27;;;3.20;95.80;;;;;;4934600;28;38368;-75
2023/12/04 06:17:25;;;;;;;12.63;7.80;;;3.20;97.90;;;;;;4921265;28;37291;-76
2023/12/04 06:19:53;;;;;;;11.17;7.03;;;3.20;99.60;;;;;;4955054;28;39035;-75
2023/12/04 06:22:21;;;;;;;12.70;7.77;;;3.10;99.90;;;;;;4922670;28;37748;-76
2023/12/04 06:24:48;;;;;;;10.77;7.23;;;3.10;96.80;;;;;;4929840;28;37084;-76
2023/12/04 06:27:22;;;;;;;12.90;7.50;;;3.20;97.90;;;;;;4914454;28;38883;-76
2023/12/04 06:29:49;;;;;;;15.10;8.07;;;3.20;95.00;;;;;;4935146;28;39236;-76
2023/12/04 06:32:18;;;;;;;12.90;7.17;;;3.20;97.10;;;;;;4938791;28;37647;-75
2023/12/04 06:34:45;;;;;;;12.60;7.73;;;3.20;98.40;;;;;;4931861;28;36855;-75
2023/12/04 06:37:12;;;;;;;10.63;7.00;;;3.10;96.90;;;;;;4910592;29;38192;-76
2023/12/04 06:39:39;;;;;;;11.20;7.03;;;3.20;94.80;;;;;;4943035;28;37634;-76
2023/12/04 06:42:10;;;;;;;13.40;7.73;;;3.20;92.50;;;;;;4919365;28;39897;-75
2023/12/04 06:44:39;;;;;;;12.30;7.73;;;3.20;93.70;;;;;;4915707;28;36784;-76
2023/12/04 06:47:12;;;;;;;12.90;7.20;;;3.30;93.80;;;;;;4926141;28;38864;-76
2023/12/04 06:49:41;;;;;;;;;;;3.30;93.80;;;;;;4936022;28;38539;-76
2023/12/04 06:52:07;;;;;;;11.13;7.27;;;3.20;92.70;;;;;;4927590;28;37497;-75
2023/12/04 06:54:33;;;;;;;11.40;7.03;;;3.30;87.00;;;;;;4925656;28;36032;-76
2023/12/04 06:57:03;;;;;;;12.67;7.30;;;3.30;89.30;;;;;;4908736;29;38643;-75
2023/12/04 06:59:31;;;;;;;11.57;7.60;;;3.30;86.00;;;;;;4944199;28;47317;-75
2023/12/04 07:01:57;;;;;;;12.80;7.13;;;3.30;92.60;;;;;;4926391;28;38130;-76
2023/12/04 07:04:24;;;;;;;14.63;8.17;;;3.30;93.40;;;;;;4922727;28;37716;-75
2023/12/04 07:06:52;;;;;;;13.43;9.43;;;3.30;94.40;;;;;;4927748;28;38685;-75
2023/12/04 07:09:18;;;;;;;10.70;6.73;;;3.30;92.50;;;;;;4934298;28;39550;-76
2023/12/04 07:11:44;;;;;;;12.43;7.50;;;3.30;93.00;;;;;;4911446;28;37207;-76
2023/12/04 07:14:13;;;;;;;12.83;6.97;;;3.30;94.60;;;;;;4914987;28;36236;-76
2023/12/04 07:16:44;;;;;;;11.47;7.80;;;3.30;92.90;;;;;;4933116;28;39726;-76
2023/12/04 07:19:10;;;;;;;9.70;6.83;;;3.30;94.40;;;;;;4930757;28;38450;-75
2023/12/04 07:21:38;;;;;;;12.33;7.70;;;3.20;91.50;;;;;;4919847;28;38915;-76
2023/12/04 07:24:05;;;;;;;10.70;6.50;;;3.30;92.80;;;;;;4911453;28;36169;-76
2023/12/04 07:26:32;;;;;;;11.67;6.93;;;3.30;93.30;;;;;;4908532;29;37878;-75
2023/12/04 07:28:58;;;;;;;11.20;7.03;;;3.30;94.00;;;;;;4929864;28;39255;-75
2023/12/04 07:31:25;;;;;;;9.77;6.30;;;3.30;94.30;;;;;;4913514;28;37900;-75
2023/12/04 07:33:53;;;;;;;11.90;6.77;;;3.20;94.00;;;;;;4935336;28;37774;-76
2023/12/04 07:36:20;;;;;;;10.27;7.03;;;3.20;94.50;;;;;;4928135;28;39773;-77
2023/12/04 07:38:46;;;;;;;10.90;6.60;;;3.20;93.60;;;;;;4932917;28;39435;-75
2023/12/04 07:41:13;;;;;;;10.10;6.57;;;3.20;95.90;;;;;;4932398;28;39115;-76
2023/12/04 07:43:40;;;;;;;10.57;7.10;;;3.20;94.80;;;;;;4926562;28;37046;-76
2023/12/04 07:46:08;;;;;;;10.03;6.60;;;3.20;94.80;;;;;;4922469;28;38752;-76
2023/12/04 07:48:34;;;;;;;10.33;7.03;;;3.20;94.50;;;;;;4924834;28;38839;-75
2023/12/04 07:51:01;;;;;;;9.63;6.80;;;3.20;96.60;;;;;;4907691;28;36952;-75
2023/12/04 07:53:27;;;;;;;9.77;6.70;;;3.30;92.80;;;;;;4951416;28;48019;-74
2023/12/04 07:55:53;;;;;;;9.87;6.50;;;3.30;91.00;;;;;;4930968;28;40123;-75
2023/12/04 07:58:19;;;;;;;12.67;7.03;;;3.30;86.80;;;;;;4910807;28;38291;-75
2023/12/04 08:00:46;;;;;;;13.23;6.70;;;3.30;88.40;;;;;;4928112;28;38560;-75
2023/12/04 08:03:12;;;;;;;11.10;6.57;;;3.30;84.10;;;;;;4912685;29;36684;-76
2023/12/04 08:05:38;;;;;;;9.27;5.87;;;3.30;86.30;;;;;;4916361;28;38236;-75
2023/12/04 08:08:05;;;;;;;10.97;6.63;;;3.30;85.50;;;;;;4928992;28;38495;-76
2023/12/04 08:10:31;;;;;;;11.53;6.70;;;3.30;71.30;;;;;;4933039;28;38484;-75
2023/12/04 08:12:58;;;;;;;11.43;6.40;;;3.40;75.60;;;;;;4937986;28;38079;-76
2023/12/04 08:15:24;;;;;;;11.97;6.97;;;3.40;77.10;;;;;;4934489;28;38670;-76
2023/12/04 08:17:53;;;;;;;12.13;7.13;;;3.40;80.60;;;;;;4932089;28;38500;-75
2023/12/04 08:20:22;;;;;;;10.43;6.83;;;3.40;73.20;;;;;;4935990;28;38506;-75
2023/12/04 08:22:49;;;;;;;11.50;6.63;;;3.40;75.40;;;;;;4914778;29;36382;-76
2023/12/04 08:25:15;;;;;;;10.60;6.47;;;3.40;65.70;;;;;;4938117;28;39004;-74
2023/12/04 08:27:42;;;;;;;9.37;6.10;;;3.40;71.80;;;;;;4917040;28;37399;-75
2023/12/04 08:30:08;;;;;;;9.17;6.47;;;3.40;67.00;;;;;;4906606;28;37295;-75
2023/12/04 08:32:36;;;;;;;11.33;6.40;;;3.50;71.10;;;;;;4926916;28;37938;-77
2023/12/04 08:35:03;;;;;;;9.03;6.17;;;3.50;71.60;;;;;;4930650;28;40942;-75
2023/12/04 08:37:30;;;;;;;10.47;6.60;;;3.50;69.60;;;;;;4913829;28;38852;-76
2023/12/04 08:39:56;;;;;;;11.47;6.60;;;3.50;75.80;;;;;;4936690;28;38955;-76
2023/12/04 08:42:22;;;;;;;11.27;6.90;;;3.50;78.80;;;;;;4951657;28;37473;-75
2023/12/04 08:44:48;;;;;;;11.27;6.33;;;3.50;81.40;;;;;;4912724;29;39150;-76
2023/12/04 08:47:16;;;;;;;9.93;6.70;;;3.40;87.50;;;;;;4942537;28;38462;-76
2023/12/04 08:49:43;;;;;;;9.23;6.00;;;3.40;90.30;;;;;;4942819;28;37494;-76
2023/12/04 08:52:10;;;;;;;9.80;6.23;;;3.50;84.90;;;;;;4914696;29;35838;-76
2023/12/04 08:54:43;;;;;;;11.20;6.13;;;3.40;91.30;;;;;;4911580;28;38748;-76
2023/12/04 08:57:09;;;;;;;9.97;6.67;;;3.40;92.50;;;;;;4919459;28;38047;-77
2023/12/04 08:59:36;;;;;;;11.83;6.60;;;3.40;92.30;;;;;;4914035;29;37759;-77
2023/12/04 09:02:03;;;;;;;9.73;6.47;;;3.40;91.30;;;;;;4911696;29;37847;-77
2023/12/04 09:04:33;;;;;;;10.67;6.90;;;3.40;95.00;;;;;;4936003;28;39982;-76
2023/12/04 09:06:59;;;;;;;11.60;6.40;;;3.40;90.00;;;;;;4914614;28;37698;-76
2023/12/04 09:09:28;;;;;;;12.03;7.10;;;3.40;91.10;;;;;;4934160;28;37224;-76
2023/12/04 09:11:54;;;;;;;10.23;6.20;;;3.40;91.60;;;;;;4912504;28;37126;-76
2023/12/04 09:14:20;;;;;;;10.97;6.23;;;3.40;84.50;;;;;;4919042;28;37765;-76
2023/12/04 09:16:48;;;;;;;10.47;6.83;;;3.50;86.20;;;;;;4928131;28;38345;-76
2023/12/04 09:19:14;;;;;;;9.53;6.20;;;3.40;87.30;;;;;;4916351;28;36993;-76
2023/12/04 09:21:40;;;;;;;9.63;6.00;;;3.50;82.30;;;;;;4914601;28;36088;-76
2023/12/04 09:24:06;;;;;;;9.53;6.63;;;3.50;85.90;;;;;;4948751;28;39588;-77
2023/12/04 09:26:33;;;;;;;8.63;6.03;;;3.50;90.30;;;;;;4912679;29;36927;-76
2023/12/04 09:28:59;;;;;;;9.77;6.40;;;3.50;87.00;;;;;;4932913;28;38898;-75
2023/12/04 09:31:25;;;;;;;8.53;6.20;;;3.60;90.60;;;;;;4932070;28;37261;-76
2023/12/04 09:33:51;;;;;;;12.47;6.97;;;3.50;91.10;;;;;;4934784;28;38186;-76
2023/12/04 09:36:20;;;;;;;8.30;5.90;;;3.50;90.00;;;;;;4932912;28;38819;-76
2023/12/04 09:38:46;;;;;;;10.50;6.67;;;3.60;79.90;;;;;;4926980;28;39326;-75
2023/12/04 09:41:15;;;;;;;8.73;6.10;;;3.60;79.60;;;;;;4913366;28;36089;-76
2023/12/04 09:43:41;;;;;;;12.20;7.37;;;3.60;91.00;;;;;;4946996;28;38346;-76
2023/12/04 09:46:11;;;;;;;10.17;6.60;;;3.60;86.10;;;;;;4919094;29;38565;-76
2023/12/04 09:48:38;;;;;;;9.87;6.40;;;3.70;90.80;;;;;;4935223;28;39304;-75
2023/12/04 09:51:05;;;;;;;8.53;5.80;;;3.70;83.90;;;;;;4927263;28;37259;-76
2023/12/04 09:53:33;;;;;;;10.13;6.80;;;3.80;86.20;;;;;;4911568;28;38694;-75
2023/12/04 09:56:02;;;;;;;8.83;6.40;;;3.80;79.20;;;;;;4918783;28;38382;-78
2023/12/04 09:58:32;;;;;;;7.87;5.90;;;3.80;83.30;;;;;;4928968;28;48419;-76
2023/12/04 10:01:05;;;;;;;9.57;6.70;;;3.80;82.30;;;;;;4912074;28;37709;-76
2023/12/04 10:03:32;;;;;;;;;;;3.90;76.80;;;;;;4936701;28;49264;-77
2023/12/04 10:05:58;;;;;;;14.57;7.70;;;3.90;77.90;;;;;;4944164;28;37519;-76
2023/12/04 10:08:25;;;;;;;8.23;5.73;;;3.90;78.30;;;;;;4916870;29;36730;-76
2023/12/04 10:10:51;;;;;;;10.00;7.13;;;3.90;74.30;;;;;;4934118;28;37080;-76
2023/12/04 10:13:18;;;;;;;11.73;7.27;;;3.90;75.20;;;;;;4925864;28;37719;-76
2023/12/04 10:15:53;;;;;;;10.80;7.13;;;3.90;73.40;;;;;;4939822;28;40176;-76
2023/12/04 10:18:31;;;;;;;9.23;6.60;;;3.90;69.60;;;;;;4915051;28;37236;-76
2023/12/04 10:20:58;;;;;;;9.93;6.23;;;3.90;76.40;;;;;;4918046;28;36696;-76
2023/12/04 10:23:38;;;;;;;9.37;6.30;;;3.90;66.00;;;;;;4938212;28;39022;-77
2023/12/04 10:26:07;;;;;;;10.57;5.17;;;3.90;68.80;;;;;;4917455;28;37507;-77
2023/12/04 10:28:34;;;;;;;8.70;6.13;;;3.90;61.10;;;;;;4929078;28;37326;-76
2023/12/04 10:31:01;;;;;;;7.70;5.27;;;4.00;73.40;;;;;;4933396;28;36468;-76
2023/12/04 10:33:30;;;;;;;8.63;5.70;;;4.00;63.70;;;;;;4925009;28;46683;-76
2023/12/04 10:36:00;;;;;;;9.47;6.13;;;4.00;57.80;;;;;;4913856;29;37766;-76
2023/12/04 10:38:29;;;;;;;8.20;5.83;;;4.00;68.20;;;;;;4924895;29;38129;-77
2023/12/04 10:40:56;;;;;;;10.20;6.13;;;4.00;75.00;;;;;;4913872;28;37429;-76
2023/12/04 10:43:23;;;;;;;9.57;5.80;;;4.00;74.20;;;;;;4915103;28;40528;-75
2023/12/04 10:45:50;;;;;;;8.50;6.00;;;4.10;59.50;;;;;;4909448;29;36732;-76
2023/12/04 10:48:20;;;;;;;10.70;5.70;;;4.00;70.40;;;;;;4930041;28;38108;-76
2023/12/04 10:50:50;;;;;;;9.83;5.60;;;4.10;69.50;;;;;;4915800;29;35555;-76
2023/12/04 10:53:20;;;;;;;10.07;5.73;;;4.10;74.40;;;;;;4923509;28;39286;-77
2023/12/04 10:55:53;;;;;;;6.67;5.00;;;4.00;62.60;;;;;;4914112;28;38774;-75
2023/12/04 10:58:26;;;;;;;11.20;6.20;;;4.10;80.30;;;;;;4950237;28;37179;-76
2023/12/04 11:01:00;;;;;;;8.93;5.80;;;4.10;79.00;;;;;;4926817;28;36418;-77
2023/12/04 11:03:49;;;;;;;9.23;6.17;;;4.20;88.80;;;;;;4945274;28;38208;-76
2023/12/04 11:06:18;;;;;;;15.60;8.57;;;4.20;88.20;;;;;;4932502;28;38851;-77
2023/12/04 11:08:48;;;;;;;9.80;6.10;;;4.10;90.80;;;;;;4925466;28;37246;-78
2023/12/04 11:11:35;;;;;;;9.63;6.17;;;4.10;91.00;;;;;;4946610;28;37579;-76
2023/12/04 11:14:03;;;;;;;11.00;5.87;;;4.10;94.60;;;;;;4906561;29;38131;-76
2023/12/04 11:16:57;;;;;;;8.07;5.67;;;4.10;96.90;;;;;;4916411;28;47081;-76
2023/12/04 11:19:49;;;;;;;;;;;4.10;94.00;;;;;;4940212;28;38183;-77
2023/12/04 11:22:21;;;;;;;9.17;5.40;;;4.10;95.80;;;;;;4945367;28;37904;-77
2023/12/04 11:24:48;;;;;;;8.73;5.72;;;4.10;93.20;;;;;;4946020;28;39204;-76
2023/12/04 11:27:22;;;;;;;8.73;6.40;;;4.10;95.90;;;;;;4932142;28;38512;-75
2023/12/04 11:29:51;;;;;;;8.53;5.17;;;4.10;97.30;;;;;;4925305;28;36976;-77
2023/12/04 11:32:18;;;;;;;8.73;6.43;;;4.10;97.20;;;;;;4944095;28;37270;-76
2023/12/04 11:35:04;;;;;;;9.67;6.13;;;4.10;99.90;;;;;;4954291;28;37797;-76
2023/12/04 11:37:30;;;;;;;9.57;6.20;;;4.10;99.90;;;;;;4930299;28;49314;-78
2023/12/04 11:39:58;;;;;;;9.33;6.13;;;4.20;99.90;;;;;;4915844;29;37216;-77
2023/12/04 11:42:25;;;;;;;12.97;7.10;;;4.10;99.90;;;;;;4943249;28;36983;-77
2023/12/04 11:45:01;;;;;;;9.40;6.47;;;4.10;99.90;;;;;;4913536;28;39272;-76
2023/12/04 11:47:30;;;;;;;7.97;5.83;;;4.20;99.90;;;;;;4936876;28;39423;-77
2023/12/04 11:49:57;;;;;;;11.27;6.37;;;4.20;99.90;;;;;;4924155;28;37377;-78
2023/12/04 11:52:37;;;;;;;8.87;5.37;;;4.20;99.90;;;;;;4961426;28;36284;-77
2023/12/04 11:55:09;;;;;;;8.93;5.50;;;4.20;99.90;;;;;;4933534;28;38477;-77
2023/12/04 11:57:37;;;;;;;8.18;5.43;;;4.30;99.90;;;;;;4928292;28;49004;-77
2023/12/04 12:00:22;;;;;;;9.43;6.00;;;4.30;99.90;;;;;;4923025;28;38125;-74
2023/12/04 12:02:57;;;;;;;6.93;5.13;;;4.20;99.90;;;;;;4919178;29;37068;-75
2023/12/04 12:05:25;;;;;;;8.63;5.43;;;4.30;99.90;;;;;;4930445;28;40067;-77
2023/12/04 12:07:55;;;;;;;7.90;5.50;;;4.30;99.90;;;;;;4923967;28;38388;-76
2023/12/04 12:10:24;;;;;;;9.27;6.17;;;4.30;99.90;;;;;;4925264;28;37418;-76
2023/12/04 12:12:52;;;;;;;9.77;6.10;;;4.30;99.90;;;;;;4906467;28;36410;-77
2023/12/04 12:15:18;;;;;;;9.73;5.87;;;4.30;99.90;;;;;;4913409;28;39367;-77
2023/12/04 12:17:47;;;;;;;9.90;5.60;;;4.30;99.90;;;;;;4911357;28;39019;-76
2023/12/04 12:20:14;;;;;;;7.40;5.20;;;4.30;99.90;;;;;;4916070;28;38373;-76
2023/12/04 12:22:43;;;;;;;10.57;5.57;;;4.30;99.90;;;;;;4928429;28;37594;-76
2023/12/04 12:25:15;;;;;;;9.10;5.80;;;4.30;99.90;;;;;;4931006;28;39914;-77
2023/12/04 12:27:47;;;;;;;13.13;5.53;;;4.40;99.90;;;;;;4914382;29;37463;-76
2023/12/04 12:30:14;;;;;;;8.35;5.68;;;4.40;99.90;;;;;;4907911;28;38001;-77
2023/12/04 12:32:40;;;;;;;7.87;5.40;;;4.40;99.90;;;;;;4911905;28;36823;-76
2023/12/04 12:35:09;;;;;;;10.47;5.50;;;4.40;99.90;;;;;;4930256;28;38712;-77
2023/12/04 12:37:39;;;;;;;6.53;5.03;;;4.40;99.90;;;;;;4931369;28;39241;-77
2023/12/04 12:40:09;;;;;;;8.53;5.80;;;4.30;99.90;;;;;;4908750;28;37407;-77
2023/12/04 12:42:38;;;;;;;8.20;5.57;;;4.40;99.90;;;;;;4932690;28;48741;-76
2023/12/04 12:45:06;;;;;;;10.90;5.60;;;4.30;99.90;;;;;;4931525;28;39502;-76
2023/12/04 12:47:32;;;;;;;11.03;5.03;;;4.30;99.90;;;;;;4912575;28;47413;-77
2023/12/04 12:50:01;;;;;;;8.23;5.93;;;4.40;99.90;;;;;;4912610;28;37009;-75
2023/12/04 12:52:27;;;;;;;7.73;5.47;;;4.40;99.90;;;;;;4937585;28;38168;-76
2023/12/04 12:54:53;;;;;;;7.73;5.27;;;4.30;99.90;;;;;;4945293;28;38082;-76